sensor_id;sensor_type;location;lat;lon;timestamp;temperature;humidity
39675;DHT22;27790;50.840;4.386;2023-06-19T00:02:20;21.40;93.80
39675;DHT22;27790;50.840;4.386;2023-06-19T00:04:46;21.40;93.90
39675;DHT22;27790;50.840;4.386;2023-06-19T00:07:12;21.50;94.10
39675;DHT22;27790;50.840;4.386;2023-06-19T00:09:37;21.40;94.00
39675;DHT22;27790;50.840;4.386;2023-06-19T00:12:03;21.50;94.00
39675;DHT22;27790;50.840;4.386;2023-06-19T00:14:29;21.40;94.30
39675;DHT22;27790;50.840;4.386;2023-06-19T00:16:55;21.40;94.40
39675;DHT22;27790;50.840;4.386;2023-06-19T00:19:21;21.40;94.50
39675;DHT22;27790;50.840;4.386;2023-06-19T00:21:47;21.40;94.50
39675;DHT22;27790;50.840;4.386;2023-06-19T00:24:13;21.40;94.60
39675;DHT22;27790;50.840;4.386;2023-06-19T00:26:39;21.30;94.80
39675;DHT22;27790;50.840;4.386;2023-06-19T00:29:05;21.20;95.00
39675;DHT22;27790;50.840;4.386;2023-06-19T00:31:32;21.10;95.40
39675;DHT22;27790;50.840;4.386;2023-06-19T00:33:57;20.90;95.60
39675;DHT22;27790;50.840;4.386;2023-06-19T00:36:23;20.90;95.80
39675;DHT22;27790;50.840;4.386;2023-06-19T00:38:51;20.80;96.00
39675;DHT22;27790;50.840;4.386;2023-06-19T00:41:17;20.80;96.10
39675;DHT22;27790;50.840;4.386;2023-06-19T00:43:43;20.70;96.40
39675;DHT22;27790;50.840;4.386;2023-06-19T00:46:09;20.70;96.50
39675;DHT22;27790;50.840;4.386;2023-06-19T00:48:36;20.70;96.60
39675;DHT22;27790;50.840;4.386;2023-06-19T00:51:01;20.70;96.70
39675;DHT22;27790;50.840;4.386;2023-06-19T00:53:27;20.70;96.80
39675;DHT22;27790;50.840;4.386;2023-06-19T00:55:55;20.80;97.00
39675;DHT22;27790;50.840;4.386;2023-06-19T00:58:22;20.70;97.00
39675;DHT22;27790;50.840;4.386;2023-06-19T01:00:50;20.70;97.30
39675;DHT22;27790;50.840;4.386;2023-06-19T01:03:16;20.70;97.40
39675;DHT22;27790;50.840;4.386;2023-06-19T01:05:43;20.70;97.40
39675;DHT22;27790;50.840;4.386;2023-06-19T01:08:35;20.80;97.50
39675;DHT22;27790;50.840;4.386;2023-06-19T01:11:04;20.90;97.40
39675;DHT22;27790;50.840;4.386;2023-06-19T01:13:37;20.90;97.40
39675;DHT22;27790;50.840;4.386;2023-06-19T01:16:04;20.90;97.40
39675;DHT22;27790;50.840;4.386;2023-06-19T01:18:32;21.00;97.50
39675;DHT22;27790;50.840;4.386;2023-06-19T01:21:12;21.10;97.40
39675;DHT22;27790;50.840;4.386;2023-06-19T01:23:38;21.10;97.30
39675;DHT22;27790;50.840;4.386;2023-06-19T01:26:03;21.20;97.30
39675;DHT22;27790;50.840;4.386;2023-06-19T01:28:29;21.20;97.30
39675;DHT22;27790;50.840;4.386;2023-06-19T01:30:56;21.20;97.30
39675;DHT22;27790;50.840;4.386;2023-06-19T01:33:27;21.30;97.40
39675;DHT22;27790;50.840;4.386;2023-06-19T01:35:55;21.30;97.40
39675;DHT22;27790;50.840;4.386;2023-06-19T01:38:22;21.30;97.30
39675;DHT22;27790;50.840;4.386;2023-06-19T01:40:54;21.30;97.40
39675;DHT22;27790;50.840;4.386;2023-06-19T01:43:21;21.30;97.50
39675;DHT22;27790;50.840;4.386;2023-06-19T01:45:48;21.30;97.60
39675;DHT22;27790;50.840;4.386;2023-06-19T01:48:14;21.30;97.60
39675;DHT22;27790;50.840;4.386;2023-06-19T01:50:41;21.20;97.70
39675;DHT22;27790;50.840;4.386;2023-06-19T01:53:06;21.20;98.10
39675;DHT22;27790;50.840;4.386;2023-06-19T01:55:32;21.20;98.00
39675;DHT22;27790;50.840;4.386;2023-06-19T01:57:58;21.20;98.10
39675;DHT22;27790;50.840;4.386;2023-06-19T02:00:23;21.30;98.20
39675;DHT22;27790;50.840;4.386;2023-06-19T02:02:49;21.30;98.20
39675;DHT22;27790;50.840;4.386;2023-06-19T02:05:14;21.30;98.20
39675;DHT22;27790;50.840;4.386;2023-06-19T02:07:40;21.30;98.30
39675;DHT22;27790;50.840;4.386;2023-06-19T02:10:07;21.30;98.50
39675;DHT22;27790;50.840;4.386;2023-06-19T02:12:33;21.30;98.50
39675;DHT22;27790;50.840;4.386;2023-06-19T02:14:59;21.30;98.50
39675;DHT22;27790;50.840;4.386;2023-06-19T02:17:24;21.30;98.30
39675;DHT22;27790;50.840;4.386;2023-06-19T02:19:50;21.40;98.40
39675;DHT22;27790;50.840;4.386;2023-06-19T02:22:18;21.40;98.40
39675;DHT22;27790;50.840;4.386;2023-06-19T02:24:43;21.40;98.50
39675;DHT22;27790;50.840;4.386;2023-06-19T02:27:10;21.40;98.50
39675;DHT22;27790;50.840;4.386;2023-06-19T02:29:36;21.40;98.60
39675;DHT22;27790;50.840;4.386;2023-06-19T02:32:03;21.40;98.60
39675;DHT22;27790;50.840;4.386;2023-06-19T02:34:28;21.50;98.60
39675;DHT22;27790;50.840;4.386;2023-06-19T02:36:54;21.40;98.60
39675;DHT22;27790;50.840;4.386;2023-06-19T02:39:21;21.40;98.70
39675;DHT22;27790;50.840;4.386;2023-06-19T02:41:46;21.50;98.70
39675;DHT22;27790;50.840;4.386;2023-06-19T02:44:13;21.60;98.60
39675;DHT22;27790;50.840;4.386;2023-06-19T02:46:39;21.60;98.60
39675;DHT22;27790;50.840;4.386;2023-06-19T02:49:05;21.60;98.80
39675;DHT22;27790;50.840;4.386;2023-06-19T02:51:30;21.60;99.10
39675;DHT22;27790;50.840;4.386;2023-06-19T02:53:56;21.60;99.00
39675;DHT22;27790;50.840;4.386;2023-06-19T02:56:22;21.60;99.00
39675;DHT22;27790;50.840;4.386;2023-06-19T02:58:48;21.50;99.10
39675;DHT22;27790;50.840;4.386;2023-06-19T03:01:14;21.60;99.40
39675;DHT22;27790;50.840;4.386;2023-06-19T03:03:39;21.50;99.60
39675;DHT22;27790;50.840;4.386;2023-06-19T03:06:07;21.50;99.80
39675;DHT22;27790;50.840;4.386;2023-06-19T03:08:36;21.50;99.90
39675;DHT22;27790;50.840;4.386;2023-06-19T03:11:01;21.40;99.90
39675;DHT22;27790;50.840;4.386;2023-06-19T03:13:43;21.30;99.90
39675;DHT22;27790;50.840;4.386;2023-06-19T03:16:10;21.30;99.90
39675;DHT22;27790;50.840;4.386;2023-06-19T03:18:35;21.30;99.90
39675;DHT22;27790;50.840;4.386;2023-06-19T03:21:01;21.20;99.90
39675;DHT22;27790;50.840;4.386;2023-06-19T03:23:26;21.20;99.90
39675;DHT22;27790;50.840;4.386;2023-06-19T03:25:52;21.20;99.90
39675;DHT22;27790;50.840;4.386;2023-06-19T03:28:17;21.10;99.90
39675;DHT22;27790;50.840;4.386;2023-06-19T03:30:43;21.10;99.90
39675;DHT22;27790;50.840;4.386;2023-06-19T03:33:08;21.10;99.90
39675;DHT22;27790;50.840;4.386;2023-06-19T03:35:34;21.10;99.90
39675;DHT22;27790;50.840;4.386;2023-06-19T03:38:00;21.00;99.90
39675;DHT22;27790;50.840;4.386;2023-06-19T03:40:25;21.00;99.90
39675;DHT22;27790;50.840;4.386;2023-06-19T03:42:51;20.90;99.90
39675;DHT22;27790;50.840;4.386;2023-06-19T03:45:16;20.80;99.90
39675;DHT22;27790;50.840;4.386;2023-06-19T03:47:42;20.80;99.90
39675;DHT22;27790;50.840;4.386;2023-06-19T03:50:08;20.70;99.90
39675;DHT22;27790;50.840;4.386;2023-06-19T03:52:36;20.70;99.90
39675;DHT22;27790;50.840;4.386;2023-06-19T03:55:03;20.70;99.90
39675;DHT22;27790;50.840;4.386;2023-06-19T03:57:28;20.70;99.90
39675;DHT22;27790;50.840;4.386;2023-06-19T03:59:54;20.70;99.90
39675;DHT22;27790;50.840;4.386;2023-06-19T04:02:20;20.70;99.90
39675;DHT22;27790;50.840;4.386;2023-06-19T04:04:45;20.60;99.90
39675;DHT22;27790;50.840;4.386;2023-06-19T04:07:12;20.60;99.90
39675;DHT22;27790;50.840;4.386;2023-06-19T04:09:38;20.60;99.90
39675;DHT22;27790;50.840;4.386;2023-06-19T04:12:04;20.60;99.90
39675;DHT22;27790;50.840;4.386;2023-06-19T04:14:30;20.50;99.90
39675;DHT22;27790;50.840;4.386;2023-06-19T04:16:56;20.60;99.90
39675;DHT22;27790;50.840;4.386;2023-06-19T04:19:21;20.60;99.90
39675;DHT22;27790;50.840;4.386;2023-06-19T04:21:47;20.60;99.90
39675;DHT22;27790;50.840;4.386;2023-06-19T04:24:12;20.70;99.90
39675;DHT22;27790;50.840;4.386;2023-06-19T04:26:38;20.70;99.90
39675;DHT22;27790;50.840;4.386;2023-06-19T04:29:04;20.70;99.90
39675;DHT22;27790;50.840;4.386;2023-06-19T04:31:32;20.90;99.70
39675;DHT22;27790;50.840;4.386;2023-06-19T04:33:57;21.20;98.80
39675;DHT22;27790;50.840;4.386;2023-06-19T04:36:23;21.50;98.40
39675;DHT22;27790;50.840;4.386;2023-06-19T04:38:49;21.80;97.60
39675;DHT22;27790;50.840;4.386;2023-06-19T04:41:17;22.10;97.50
39675;DHT22;27790;50.840;4.386;2023-06-19T04:43:43;22.40;96.60
39675;DHT22;27790;50.840;4.386;2023-06-19T04:46:08;22.60;96.30
39675;DHT22;27790;50.840;4.386;2023-06-19T04:48:34;22.70;96.00
39675;DHT22;27790;50.840;4.386;2023-06-19T04:51:02;23.00;95.40
39675;DHT22;27790;50.840;4.386;2023-06-19T04:53:28;23.10;95.00
39675;DHT22;27790;50.840;4.386;2023-06-19T04:55:54;23.30;94.50
39675;DHT22;27790;50.840;4.386;2023-06-19T04:58:21;23.10;94.80
39675;DHT22;27790;50.840;4.386;2023-06-19T05:00:47;23.10;94.50
39675;DHT22;27790;50.840;4.386;2023-06-19T05:03:19;23.20;94.40
39675;DHT22;27790;50.840;4.386;2023-06-19T05:05:45;23.50;93.90
39675;DHT22;27790;50.840;4.386;2023-06-19T05:08:11;23.90;93.00
39675;DHT22;27790;50.840;4.386;2023-06-19T05:10:37;24.20;92.40
39675;DHT22;27790;50.840;4.386;2023-06-19T05:13:03;24.50;91.70
39675;DHT22;27790;50.840;4.386;2023-06-19T05:15:28;24.50;91.60
39675;DHT22;27790;50.840;4.386;2023-06-19T05:17:54;24.40;91.60
39675;DHT22;27790;50.840;4.386;2023-06-19T05:20:19;24.00;91.90
39675;DHT22;27790;50.840;4.386;2023-06-19T05:22:45;24.10;92.10
39675;DHT22;27790;50.840;4.386;2023-06-19T05:25:11;24.30;91.80
39675;DHT22;27790;50.840;4.386;2023-06-19T05:27:37;24.60;91.00
39675;DHT22;27790;50.840;4.386;2023-06-19T05:30:03;24.70;90.70
39675;DHT22;27790;50.840;4.386;2023-06-19T05:32:29;24.60;90.70
39675;DHT22;27790;50.840;4.386;2023-06-19T05:34:56;24.40;91.00
39675;DHT22;27790;50.840;4.386;2023-06-19T05:37:21;24.00;91.30
39675;DHT22;27790;50.840;4.386;2023-06-19T05:39:48;23.60;91.60
39675;DHT22;27790;50.840;4.386;2023-06-19T05:42:14;23.80;91.60
39675;DHT22;27790;50.840;4.386;2023-06-19T05:44:39;23.90;91.50
39675;DHT22;27790;50.840;4.386;2023-06-19T05:47:05;23.90;91.20
39675;DHT22;27790;50.840;4.386;2023-06-19T05:49:31;23.50;91.70
39675;DHT22;27790;50.840;4.386;2023-06-19T05:51:57;23.30;92.40
39675;DHT22;27790;50.840;4.386;2023-06-19T05:54:26;23.00;92.90
39675;DHT22;27790;50.840;4.386;2023-06-19T05:56:53;22.70;93.10
39675;DHT22;27790;50.840;4.386;2023-06-19T05:59:18;22.40;93.40
39675;DHT22;27790;50.840;4.386;2023-06-19T06:01:44;22.30;93.50
39675;DHT22;27790;50.840;4.386;2023-06-19T06:04:09;22.10;93.80
39675;DHT22;27790;50.840;4.386;2023-06-19T06:06:36;22.10;93.80
39675;DHT22;27790;50.840;4.386;2023-06-19T06:09:02;21.90;94.10
39675;DHT22;27790;50.840;4.386;2023-06-19T06:11:28;21.90;94.20
39675;DHT22;27790;50.840;4.386;2023-06-19T06:13:53;21.70;94.20
39675;DHT22;27790;50.840;4.386;2023-06-19T06:16:19;21.80;94.50
39675;DHT22;27790;50.840;4.386;2023-06-19T06:18:45;21.80;94.00
39675;DHT22;27790;50.840;4.386;2023-06-19T06:21:11;21.80;94.40
39675;DHT22;27790;50.840;4.386;2023-06-19T06:23:40;21.70;94.20
39675;DHT22;27790;50.840;4.386;2023-06-19T06:26:05;21.80;94.10
39675;DHT22;27790;50.840;4.386;2023-06-19T06:28:31;21.80;94.10
39675;DHT22;27790;50.840;4.386;2023-06-19T06:30:57;21.80;94.20
39675;DHT22;27790;50.840;4.386;2023-06-19T06:33:23;21.90;94.00
39675;DHT22;27790;50.840;4.386;2023-06-19T06:35:49;22.10;93.80
39675;DHT22;27790;50.840;4.386;2023-06-19T06:38:14;22.20;93.80
39675;DHT22;27790;50.840;4.386;2023-06-19T06:40:40;22.40;93.30
39675;DHT22;27790;50.840;4.386;2023-06-19T06:43:07;22.40;92.70
39675;DHT22;27790;50.840;4.386;2023-06-19T06:45:32;22.30;92.60
39675;DHT22;27790;50.840;4.386;2023-06-19T06:47:58;22.20;92.80
39675;DHT22;27790;50.840;4.386;2023-06-19T06:50:23;22.20;93.30
39675;DHT22;27790;50.840;4.386;2023-06-19T06:52:49;22.20;93.20
39675;DHT22;27790;50.840;4.386;2023-06-19T06:55:15;22.30;92.50
39675;DHT22;27790;50.840;4.386;2023-06-19T06:57:40;22.40;92.30
39675;DHT22;27790;50.840;4.386;2023-06-19T07:00:06;22.90;91.50
39675;DHT22;27790;50.840;4.386;2023-06-19T07:02:38;23.30;90.70
39675;DHT22;27790;50.840;4.386;2023-06-19T07:05:07;23.40;90.60
39675;DHT22;27790;50.840;4.386;2023-06-19T07:07:32;23.50;90.40
39675;DHT22;27790;50.840;4.386;2023-06-19T07:09:58;23.50;90.30
39675;DHT22;27790;50.840;4.386;2023-06-19T07:12:23;23.40;90.30
39675;DHT22;27790;50.840;4.386;2023-06-19T07:14:49;23.30;90.30
39675;DHT22;27790;50.840;4.386;2023-06-19T07:17:18;23.30;90.60
39675;DHT22;27790;50.840;4.386;2023-06-19T07:19:43;23.30;90.90
39675;DHT22;27790;50.840;4.386;2023-06-19T07:22:09;23.30;91.10
39675;DHT22;27790;50.840;4.386;2023-06-19T07:24:35;23.50;91.30
39675;DHT22;27790;50.840;4.386;2023-06-19T07:27:00;23.80;90.90
39675;DHT22;27790;50.840;4.386;2023-06-19T07:29:26;24.10;90.10
39675;DHT22;27790;50.840;4.386;2023-06-19T07:31:52;24.10;89.00
39675;DHT22;27790;50.840;4.386;2023-06-19T07:34:18;24.00;89.80
39675;DHT22;27790;50.840;4.386;2023-06-19T07:36:43;24.00;89.20
39675;DHT22;27790;50.840;4.386;2023-06-19T07:39:09;23.90;89.50
39675;DHT22;27790;50.840;4.386;2023-06-19T07:41:36;23.70;90.20
39675;DHT22;27790;50.840;4.386;2023-06-19T07:44:01;23.70;90.00
39675;DHT22;27790;50.840;4.386;2023-06-19T07:46:27;23.50;90.30
39675;DHT22;27790;50.840;4.386;2023-06-19T07:48:55;23.50;90.20
39675;DHT22;27790;50.840;4.386;2023-06-19T07:51:20;23.60;90.20
39675;DHT22;27790;50.840;4.386;2023-06-19T07:53:46;23.70;90.10
39675;DHT22;27790;50.840;4.386;2023-06-19T07:56:11;23.90;89.00
39675;DHT22;27790;50.840;4.386;2023-06-19T07:58:37;24.00;89.20
39675;DHT22;27790;50.840;4.386;2023-06-19T08:01:03;24.30;88.20
39675;DHT22;27790;50.840;4.386;2023-06-19T08:03:28;24.60;87.80
39675;DHT22;27790;50.840;4.386;2023-06-19T08:05:54;25.30;85.60
39675;DHT22;27790;50.840;4.386;2023-06-19T08:08:19;25.90;84.50
39675;DHT22;27790;50.840;4.386;2023-06-19T08:10:45;26.50;82.50
39675;DHT22;27790;50.840;4.386;2023-06-19T08:13:12;26.60;81.70
39675;DHT22;27790;50.840;4.386;2023-06-19T08:15:37;26.60;81.40
39675;DHT22;27790;50.840;4.386;2023-06-19T08:18:03;26.60;81.10
39675;DHT22;27790;50.840;4.386;2023-06-19T08:20:29;26.70;81.20
39675;DHT22;27790;50.840;4.386;2023-06-19T08:22:54;26.90;79.90
39675;DHT22;27790;50.840;4.386;2023-06-19T08:25:21;27.00;79.70
39675;DHT22;27790;50.840;4.386;2023-06-19T08:27:47;27.40;78.80
39675;DHT22;27790;50.840;4.386;2023-06-19T08:30:13;27.60;78.30
39675;DHT22;27790;50.840;4.386;2023-06-19T08:32:38;27.80;78.00
39675;DHT22;27790;50.840;4.386;2023-06-19T08:35:04;27.70;77.80
39675;DHT22;27790;50.840;4.386;2023-06-19T08:37:30;28.10;77.20
39675;DHT22;27790;50.840;4.386;2023-06-19T08:39:55;28.30;75.90
39675;DHT22;27790;50.840;4.386;2023-06-19T08:42:22;28.50;76.10
39675;DHT22;27790;50.840;4.386;2023-06-19T08:44:48;28.70;75.70
39675;DHT22;27790;50.840;4.386;2023-06-19T08:47:14;28.90;74.40
39675;DHT22;27790;50.840;4.386;2023-06-19T08:49:40;28.60;74.60
39675;DHT22;27790;50.840;4.386;2023-06-19T08:52:06;28.30;74.70
39675;DHT22;27790;50.840;4.386;2023-06-19T08:54:32;28.10;75.80
39675;DHT22;27790;50.840;4.386;2023-06-19T08:57:01;27.80;76.10
39675;DHT22;27790;50.840;4.386;2023-06-19T08:59:27;27.90;75.80
39675;DHT22;27790;50.840;4.386;2023-06-19T09:01:55;28.10;75.70
39675;DHT22;27790;50.840;4.386;2023-06-19T09:04:23;28.30;75.40
39675;DHT22;27790;50.840;4.386;2023-06-19T09:06:51;28.50;75.20
39675;DHT22;27790;50.840;4.386;2023-06-19T09:09:19;28.40;73.90
39675;DHT22;27790;50.840;4.386;2023-06-19T09:14:38;28.30;75.80
39675;DHT22;27790;50.840;4.386;2023-06-19T09:17:06;28.40;75.50
39675;DHT22;27790;50.840;4.386;2023-06-19T09:19:33;28.40;75.10
39675;DHT22;27790;50.840;4.386;2023-06-19T09:22:09;28.50;75.10
39675;DHT22;27790;50.840;4.386;2023-06-19T09:24:37;28.60;75.10
39675;DHT22;27790;50.840;4.386;2023-06-19T09:27:10;28.50;73.80
39675;DHT22;27790;50.840;4.386;2023-06-19T09:29:42;28.10;75.10
39675;DHT22;27790;50.840;4.386;2023-06-19T09:32:26;27.90;75.90
39675;DHT22;27790;50.840;4.386;2023-06-19T09:34:54;27.80;74.90
39675;DHT22;27790;50.840;4.386;2023-06-19T09:37:26;28.00;75.00
39675;DHT22;27790;50.840;4.386;2023-06-19T09:39:59;28.00;74.90
39675;DHT22;27790;50.840;4.386;2023-06-19T09:42:31;27.90;74.80
39675;DHT22;27790;50.840;4.386;2023-06-19T09:45:06;27.90;75.50
39675;DHT22;27790;50.840;4.386;2023-06-19T09:47:41;27.80;74.70
39675;DHT22;27790;50.840;4.386;2023-06-19T09:50:08;27.60;75.20
39675;DHT22;27790;50.840;4.386;2023-06-19T09:52:34;27.30;75.90
39675;DHT22;27790;50.840;4.386;2023-06-19T09:55:05;27.40;77.10
39675;DHT22;27790;50.840;4.386;2023-06-19T09:57:32;27.50;76.00
39675;DHT22;27790;50.840;4.386;2023-06-19T09:59:59;27.50;75.00
39675;DHT22;27790;50.840;4.386;2023-06-19T10:02:35;27.30;75.10
39675;DHT22;27790;50.840;4.386;2023-06-19T10:05:01;27.20;76.20
39675;DHT22;27790;50.840;4.386;2023-06-19T10:07:33;27.10;76.70
39675;DHT22;27790;50.840;4.386;2023-06-19T10:10:11;27.10;76.40
39675;DHT22;27790;50.840;4.386;2023-06-19T10:12:44;27.10;75.90
39675;DHT22;27790;50.840;4.386;2023-06-19T10:15:17;27.10;76.60
39675;DHT22;27790;50.840;4.386;2023-06-19T10:20:29;27.00;77.80
39675;DHT22;27790;50.840;4.386;2023-06-19T10:25:33;27.00;78.10
39675;DHT22;27790;50.840;4.386;2023-06-19T10:27:59;26.90;77.40
39675;DHT22;27790;50.840;4.386;2023-06-19T10:30:26;26.70;77.90
39675;DHT22;27790;50.840;4.386;2023-06-19T10:32:52;26.60;79.50
39675;DHT22;27790;50.840;4.386;2023-06-19T10:35:19;26.50;78.70
39675;DHT22;27790;50.840;4.386;2023-06-19T10:37:49;26.50;80.00
39675;DHT22;27790;50.840;4.386;2023-06-19T10:40:16;26.50;78.20
39675;DHT22;27790;50.840;4.386;2023-06-19T10:42:44;26.40;78.20
39675;DHT22;27790;50.840;4.386;2023-06-19T10:45:11;26.40;78.10
39675;DHT22;27790;50.840;4.386;2023-06-19T10:47:38;26.30;78.40
39675;DHT22;27790;50.840;4.386;2023-06-19T10:52:40;26.40;77.50
39675;DHT22;27790;50.840;4.386;2023-06-19T10:55:07;26.30;79.50
39675;DHT22;27790;50.840;4.386;2023-06-19T10:57:33;26.30;79.20
39675;DHT22;27790;50.840;4.386;2023-06-19T10:59:59;26.30;78.70
39675;DHT22;27790;50.840;4.386;2023-06-19T11:02:25;26.40;78.70
39675;DHT22;27790;50.840;4.386;2023-06-19T11:04:54;26.40;78.00
39675;DHT22;27790;50.840;4.386;2023-06-19T11:07:21;26.40;77.80
39675;DHT22;27790;50.840;4.386;2023-06-19T11:09:48;26.50;77.80
39675;DHT22;27790;50.840;4.386;2023-06-19T11:12:22;26.60;78.80
39675;DHT22;27790;50.840;4.386;2023-06-19T11:14:50;26.60;77.10
39675;DHT22;27790;50.840;4.386;2023-06-19T11:17:17;26.60;78.90
39675;DHT22;27790;50.840;4.386;2023-06-19T11:19:47;26.60;79.60
39675;DHT22;27790;50.840;4.386;2023-06-19T11:22:12;26.70;75.90
39675;DHT22;27790;50.840;4.386;2023-06-19T11:24:45;26.60;76.70
39675;DHT22;27790;50.840;4.386;2023-06-19T11:27:20;26.60;76.50
39675;DHT22;27790;50.840;4.386;2023-06-19T11:29:55;26.40;77.50
39675;DHT22;27790;50.840;4.386;2023-06-19T11:32:31;26.50;77.30
39675;DHT22;27790;50.840;4.386;2023-06-19T11:34:57;26.50;76.90
39675;DHT22;27790;50.840;4.386;2023-06-19T11:37:23;26.50;75.20
39675;DHT22;27790;50.840;4.386;2023-06-19T11:39:50;26.60;77.00
39675;DHT22;27790;50.840;4.386;2023-06-19T11:42:16;26.60;75.30
39675;DHT22;27790;50.840;4.386;2023-06-19T11:44:56;26.60;74.30
39675;DHT22;27790;50.840;4.386;2023-06-19T11:47:23;26.60;74.00
39675;DHT22;27790;50.840;4.386;2023-06-19T11:49:49;26.60;74.70
39675;DHT22;27790;50.840;4.386;2023-06-19T11:52:16;26.60;75.60
39675;DHT22;27790;50.840;4.386;2023-06-19T11:54:41;26.70;75.40
39675;DHT22;27790;50.840;4.386;2023-06-19T11:57:09;26.70;74.70
39675;DHT22;27790;50.840;4.386;2023-06-19T11:59:41;26.60;71.90
39675;DHT22;27790;50.840;4.386;2023-06-19T12:02:07;26.60;73.20
39675;DHT22;27790;50.840;4.386;2023-06-19T12:04:34;26.50;69.90
39675;DHT22;27790;50.840;4.386;2023-06-19T12:07:00;26.50;70.60
39675;DHT22;27790;50.840;4.386;2023-06-19T12:09:26;26.40;70.00
39675;DHT22;27790;50.840;4.386;2023-06-19T12:11:51;26.40;71.00
39675;DHT22;27790;50.840;4.386;2023-06-19T12:14:17;26.40;72.60
39675;DHT22;27790;50.840;4.386;2023-06-19T12:16:45;26.50;73.20
39675;DHT22;27790;50.840;4.386;2023-06-19T12:19:11;26.70;72.70
39675;DHT22;27790;50.840;4.386;2023-06-19T12:21:37;26.70;73.00
39675;DHT22;27790;50.840;4.386;2023-06-19T12:24:02;26.80;69.50
39675;DHT22;27790;50.840;4.386;2023-06-19T12:26:28;26.70;70.40
39675;DHT22;27790;50.840;4.386;2023-06-19T12:28:54;26.60;71.70
39675;DHT22;27790;50.840;4.386;2023-06-19T12:31:19;26.60;74.20
39675;DHT22;27790;50.840;4.386;2023-06-19T12:33:45;26.60;72.40
39675;DHT22;27790;50.840;4.386;2023-06-19T12:36:16;26.60;72.50
39675;DHT22;27790;50.840;4.386;2023-06-19T12:38:42;26.60;72.40
39675;DHT22;27790;50.840;4.386;2023-06-19T12:41:07;26.80;72.80
39675;DHT22;27790;50.840;4.386;2023-06-19T12:43:33;26.80;71.30
39675;DHT22;27790;50.840;4.386;2023-06-19T12:45:59;26.80;71.50
39675;DHT22;27790;50.840;4.386;2023-06-19T12:48:26;26.90;71.40
39675;DHT22;27790;50.840;4.386;2023-06-19T12:50:52;26.90;70.50
39675;DHT22;27790;50.840;4.386;2023-06-19T12:53:18;26.90;69.50
39675;DHT22;27790;50.840;4.386;2023-06-19T12:55:43;27.00;70.90
39675;DHT22;27790;50.840;4.386;2023-06-19T12:58:09;27.10;70.60
39675;DHT22;27790;50.840;4.386;2023-06-19T13:00:37;27.10;72.50
39675;DHT22;27790;50.840;4.386;2023-06-19T13:03:02;27.00;69.30
39675;DHT22;27790;50.840;4.386;2023-06-19T13:05:28;27.10;70.70
39675;DHT22;27790;50.840;4.386;2023-06-19T13:07:53;27.00;69.80
39675;DHT22;27790;50.840;4.386;2023-06-19T13:10:19;27.00;69.60
39675;DHT22;27790;50.840;4.386;2023-06-19T13:12:45;27.00;71.20
39675;DHT22;27790;50.840;4.386;2023-06-19T13:15:11;26.90;68.90
39675;DHT22;27790;50.840;4.386;2023-06-19T13:17:36;26.90;70.60
39675;DHT22;27790;50.840;4.386;2023-06-19T13:20:02;26.80;69.50
39675;DHT22;27790;50.840;4.386;2023-06-19T13:22:30;26.90;68.40
39675;DHT22;27790;50.840;4.386;2023-06-19T13:24:56;26.90;67.80
39675;DHT22;27790;50.840;4.386;2023-06-19T13:27:21;27.00;69.10
39675;DHT22;27790;50.840;4.386;2023-06-19T13:29:47;27.10;69.40
39675;DHT22;27790;50.840;4.386;2023-06-19T13:32:12;27.10;68.90
39675;DHT22;27790;50.840;4.386;2023-06-19T13:34:38;27.10;68.00
39675;DHT22;27790;50.840;4.386;2023-06-19T13:37:04;27.10;67.20
39675;DHT22;27790;50.840;4.386;2023-06-19T13:39:29;27.10;68.00
39675;DHT22;27790;50.840;4.386;2023-06-19T13:41:55;27.20;69.20
39675;DHT22;27790;50.840;4.386;2023-06-19T13:44:21;27.10;69.90
39675;DHT22;27790;50.840;4.386;2023-06-19T13:46:47;27.20;69.80
39675;DHT22;27790;50.840;4.386;2023-06-19T13:49:13;27.20;68.70
39675;DHT22;27790;50.840;4.386;2023-06-19T13:51:39;27.20;70.50
39675;DHT22;27790;50.840;4.386;2023-06-19T13:54:05;27.20;69.80
39675;DHT22;27790;50.840;4.386;2023-06-19T13:56:31;27.10;70.40
39675;DHT22;27790;50.840;4.386;2023-06-19T13:58:58;27.10;71.40
39675;DHT22;27790;50.840;4.386;2023-06-19T14:01:24;27.20;70.10
39675;DHT22;27790;50.840;4.386;2023-06-19T14:03:51;27.20;70.80
39675;DHT22;27790;50.840;4.386;2023-06-19T14:06:17;27.30;71.20
39675;DHT22;27790;50.840;4.386;2023-06-19T14:08:42;27.30;69.80
39675;DHT22;27790;50.840;4.386;2023-06-19T14:11:08;27.40;70.60
39675;DHT22;27790;50.840;4.386;2023-06-19T14:13:34;27.40;70.90
39675;DHT22;27790;50.840;4.386;2023-06-19T14:15:59;27.50;70.80
39675;DHT22;27790;50.840;4.386;2023-06-19T14:18:25;27.60;70.00
39675;DHT22;27790;50.840;4.386;2023-06-19T14:20:51;27.60;70.40
39675;DHT22;27790;50.840;4.386;2023-06-19T14:23:16;27.60;70.60
39675;DHT22;27790;50.840;4.386;2023-06-19T14:25:42;27.70;70.60
39675;DHT22;27790;50.840;4.386;2023-06-19T14:28:08;27.80;70.00
39675;DHT22;27790;50.840;4.386;2023-06-19T14:30:33;27.80;69.10
39675;DHT22;27790;50.840;4.386;2023-06-19T14:32:59;27.80;69.40
39675;DHT22;27790;50.840;4.386;2023-06-19T14:35:24;27.80;69.80
39675;DHT22;27790;50.840;4.386;2023-06-19T14:37:50;27.70;69.90
39675;DHT22;27790;50.840;4.386;2023-06-19T14:40:15;27.70;69.80
39675;DHT22;27790;50.840;4.386;2023-06-19T14:42:41;27.80;69.80
39675;DHT22;27790;50.840;4.386;2023-06-19T14:45:07;27.90;70.20
39675;DHT22;27790;50.840;4.386;2023-06-19T14:47:33;27.90;68.00
39675;DHT22;27790;50.840;4.386;2023-06-19T14:49:59;28.00;68.10
39675;DHT22;27790;50.840;4.386;2023-06-19T14:52:24;28.20;68.70
39675;DHT22;27790;50.840;4.386;2023-06-19T14:54:50;28.30;68.80
39675;DHT22;27790;50.840;4.386;2023-06-19T14:57:16;28.30;68.60
39675;DHT22;27790;50.840;4.386;2023-06-19T14:59:41;28.30;68.60
39675;DHT22;27790;50.840;4.386;2023-06-19T15:02:07;28.30;67.80
39675;DHT22;27790;50.840;4.386;2023-06-19T15:04:33;28.20;68.70
39675;DHT22;27790;50.840;4.386;2023-06-19T15:06:59;28.20;67.80
39675;DHT22;27790;50.840;4.386;2023-06-19T15:09:25;28.20;67.60
39675;DHT22;27790;50.840;4.386;2023-06-19T15:11:51;28.20;67.50
39675;DHT22;27790;50.840;4.386;2023-06-19T15:14:18;28.30;67.60
39675;DHT22;27790;50.840;4.386;2023-06-19T15:16:43;28.40;68.00
39675;DHT22;27790;50.840;4.386;2023-06-19T15:19:09;28.40;67.40
39675;DHT22;27790;50.840;4.386;2023-06-19T15:21:34;28.40;65.90
39675;DHT22;27790;50.840;4.386;2023-06-19T15:24:00;28.40;66.10
39675;DHT22;27790;50.840;4.386;2023-06-19T15:26:26;28.30;67.40
39675;DHT22;27790;50.840;4.386;2023-06-19T15:28:51;28.40;67.80
39675;DHT22;27790;50.840;4.386;2023-06-19T15:31:20;28.40;67.70
39675;DHT22;27790;50.840;4.386;2023-06-19T15:33:46;28.50;67.80
39675;DHT22;27790;50.840;4.386;2023-06-19T15:36:12;28.70;68.70
39675;DHT22;27790;50.840;4.386;2023-06-19T15:38:38;28.70;67.80